sensor_id;sensor_type;location;lat;lon;timestamp;P1;durP1;ratioP1;P2;durP2;ratioP2
71395;SDS011;59888;55.814;37.132;2023-05-10T00:00:28;11.13;;;5.13;;
71395;SDS011;59888;55.814;37.132;2023-05-10T00:02:54;10.88;;;4.82;;
71395;SDS011;59888;55.814;37.132;2023-05-10T00:05:20;9.90;;;5.05;;
71395;SDS011;59888;55.814;37.132;2023-05-10T00:07:46;10.85;;;4.90;;
71395;SDS011;59888;55.814;37.132;2023-05-10T00:10:12;12.10;;;5.25;;
71395;SDS011;59888;55.814;37.132;2023-05-10T00:12:38;9.20;;;5.00;;
71395;SDS011;59888;55.814;37.132;2023-05-10T00:15:04;12.05;;;4.85;;
71395;SDS011;59888;55.814;37.132;2023-05-10T00:17:32;9.52;;;4.65;;
71395;SDS011;59888;55.814;37.132;2023-05-10T00:19:59;10.30;;;5.30;;
71395;SDS011;59888;55.814;37.132;2023-05-10T00:22:25;8.38;;;4.97;;
71395;SDS011;59888;55.814;37.132;2023-05-10T00:24:51;11.88;;;5.65;;
71395;SDS011;59888;55.814;37.132;2023-05-10T00:27:17;10.73;;;5.03;;
71395;SDS011;59888;55.814;37.132;2023-05-10T00:29:43;12.82;;;5.13;;
71395;SDS011;59888;55.814;37.132;2023-05-10T00:32:09;9.05;;;4.85;;
71395;SDS011;59888;55.814;37.132;2023-05-10T00:34:35;9.30;;;4.90;;
71395;SDS011;59888;55.814;37.132;2023-05-10T00:37:01;11.60;;;4.90;;
71395;SDS011;59888;55.814;37.132;2023-05-10T00:39:27;11.18;;;4.97;;
71395;SDS011;59888;55.814;37.132;2023-05-10T00:41:54;7.85;;;4.68;;
71395;SDS011;59888;55.814;37.132;2023-05-10T00:44:20;9.45;;;5.40;;
71395;SDS011;59888;55.814;37.132;2023-05-10T00:46:46;10.27;;;5.55;;
71395;SDS011;59888;55.814;37.132;2023-05-10T00:49:14;11.07;;;5.22;;
71395;SDS011;59888;55.814;37.132;2023-05-10T00:51:40;11.07;;;5.47;;
71395;SDS011;59888;55.814;37.132;2023-05-10T00:54:09;11.00;;;5.38;;
71395;SDS011;59888;55.814;37.132;2023-05-10T00:56:37;8.50;;;5.15;;
71395;SDS011;59888;55.814;37.132;2023-05-10T00:59:03;12.45;;;5.35;;
71395;SDS011;59888;55.814;37.132;2023-05-10T01:01:29;11.55;;;5.20;;
71395;SDS011;59888;55.814;37.132;2023-05-10T01:03:55;14.13;;;5.82;;
71395;SDS011;59888;55.814;37.132;2023-05-10T01:06:22;11.25;;;5.90;;
71395;SDS011;59888;55.814;37.132;2023-05-10T01:08:48;10.32;;;4.95;;
71395;SDS011;59888;55.814;37.132;2023-05-10T01:11:14;9.75;;;5.15;;
71395;SDS011;59888;55.814;37.132;2023-05-10T01:13:41;10.88;;;5.35;;
71395;SDS011;59888;55.814;37.132;2023-05-10T01:16:08;9.38;;;5.28;;
71395;SDS011;59888;55.814;37.132;2023-05-10T01:18:35;10.88;;;5.32;;
71395;SDS011;59888;55.814;37.132;2023-05-10T01:21:22;13.30;;;5.75;;
71395;SDS011;59888;55.814;37.132;2023-05-10T01:24:09;10.52;;;5.40;;
71395;SDS011;59888;55.814;37.132;2023-05-10T01:32:35;11.93;;;5.75;;
71395;SDS011;59888;55.814;37.132;2023-05-10T01:35:07;13.18;;;6.03;;
71395;SDS011;59888;55.814;37.132;2023-05-10T01:40:37;13.35;;;6.47;;
71395;SDS011;59888;55.814;37.132;2023-05-10T01:43:10;13.27;;;5.50;;
71395;SDS011;59888;55.814;37.132;2023-05-10T01:45:47;11.73;;;5.90;;
71395;SDS011;59888;55.814;37.132;2023-05-10T01:48:21;11.38;;;5.68;;
71395;SDS011;59888;55.814;37.132;2023-05-10T01:50:48;8.68;;;5.28;;
71395;SDS011;59888;55.814;37.132;2023-05-10T01:53:17;11.45;;;5.68;;
71395;SDS011;59888;55.814;37.132;2023-05-10T01:55:49;10.23;;;5.65;;
71395;SDS011;59888;55.814;37.132;2023-05-10T01:58:23;10.63;;;5.75;;
71395;SDS011;59888;55.814;37.132;2023-05-10T02:00:53;11.43;;;5.97;;
71395;SDS011;59888;55.814;37.132;2023-05-10T02:03:23;14.55;;;6.72;;
71395;SDS011;59888;55.814;37.132;2023-05-10T02:05:52;11.35;;;5.68;;
71395;SDS011;59888;55.814;37.132;2023-05-10T02:08:21;10.60;;;5.50;;
71395;SDS011;59888;55.814;37.132;2023-05-10T02:10:49;13.38;;;5.80;;
71395;SDS011;59888;55.814;37.132;2023-05-10T02:13:17;11.48;;;5.68;;
71395;SDS011;59888;55.814;37.132;2023-05-10T02:15:46;11.52;;;5.78;;
71395;SDS011;59888;55.814;37.132;2023-05-10T02:18:13;8.90;;;5.25;;
71395;SDS011;59888;55.814;37.132;2023-05-10T02:20:40;11.02;;;5.88;;
71395;SDS011;59888;55.814;37.132;2023-05-10T02:23:08;10.05;;;5.70;;
71395;SDS011;59888;55.814;37.132;2023-05-10T02:25:36;13.95;;;5.85;;
71395;SDS011;59888;55.814;37.132;2023-05-10T02:28:04;12.45;;;6.57;;
71395;SDS011;59888;55.814;37.132;2023-05-10T02:30:32;10.93;;;5.95;;
71395;SDS011;59888;55.814;37.132;2023-05-10T02:32:59;13.30;;;6.03;;
71395;SDS011;59888;55.814;37.132;2023-05-10T02:35:27;10.18;;;5.43;;
71395;SDS011;59888;55.814;37.132;2023-05-10T02:37:54;18.33;;;6.28;;
71395;SDS011;59888;55.814;37.132;2023-05-10T02:40:20;11.57;;;5.13;;
71395;SDS011;59888;55.814;37.132;2023-05-10T02:42:50;10.80;;;5.95;;
71395;SDS011;59888;55.814;37.132;2023-05-10T02:45:18;14.55;;;5.78;;
71395;SDS011;59888;55.814;37.132;2023-05-10T02:47:47;10.73;;;5.70;;
71395;SDS011;59888;55.814;37.132;2023-05-10T02:50:13;15.02;;;5.78;;
71395;SDS011;59888;55.814;37.132;2023-05-10T02:52:44;8.90;;;5.20;;
71395;SDS011;59888;55.814;37.132;2023-05-10T02:55:14;13.60;;;6.00;;
71395;SDS011;59888;55.814;37.132;2023-05-10T02:58:00;10.57;;;6.20;;
71395;SDS011;59888;55.814;37.132;2023-05-10T03:00:27;10.63;;;5.07;;
71395;SDS011;59888;55.814;37.132;2023-05-10T03:02:54;9.60;;;5.20;;
71395;SDS011;59888;55.814;37.132;2023-05-10T03:05:20;9.35;;;4.90;;
71395;SDS011;59888;55.814;37.132;2023-05-10T03:07:46;9.80;;;5.03;;
71395;SDS011;59888;55.814;37.132;2023-05-10T03:10:13;13.80;;;5.13;;
71395;SDS011;59888;55.814;37.132;2023-05-10T03:18:08;11.73;;;5.00;;
71395;SDS011;59888;55.814;37.132;2023-05-10T03:20:48;11.40;;;5.10;;
71395;SDS011;59888;55.814;37.132;2023-05-10T03:25:52;14.25;;;5.32;;
71395;SDS011;59888;55.814;37.132;2023-05-10T03:28:20;12.52;;;5.30;;
71395;SDS011;59888;55.814;37.132;2023-05-10T03:30:47;10.75;;;5.13;;
71395;SDS011;59888;55.814;37.132;2023-05-10T03:33:15;17.02;;;5.38;;
71395;SDS011;59888;55.814;37.132;2023-05-10T03:35:44;13.65;;;5.68;;
71395;SDS011;59888;55.814;37.132;2023-05-10T03:38:12;11.70;;;5.65;;
71395;SDS011;59888;55.814;37.132;2023-05-10T03:40:38;14.13;;;5.63;;
71395;SDS011;59888;55.814;37.132;2023-05-10T03:43:04;13.27;;;5.47;;
71395;SDS011;59888;55.814;37.132;2023-05-10T03:45:30;8.27;;;5.00;;
71395;SDS011;59888;55.814;37.132;2023-05-10T03:47:57;11.15;;;5.07;;
71395;SDS011;59888;55.814;37.132;2023-05-10T03:50:24;11.13;;;5.22;;
71395;SDS011;59888;55.814;37.132;2023-05-10T03:52:49;8.95;;;5.18;;
71395;SDS011;59888;55.814;37.132;2023-05-10T03:55:15;10.70;;;4.95;;
71395;SDS011;59888;55.814;37.132;2023-05-10T03:57:42;9.43;;;5.30;;
71395;SDS011;59888;55.814;37.132;2023-05-10T04:00:08;12.68;;;5.20;;
71395;SDS011;59888;55.814;37.132;2023-05-10T04:02:41;9.30;;;3.97;;
71395;SDS011;59888;55.814;37.132;2023-05-10T04:05:10;10.70;;;4.70;;
71395;SDS011;59888;55.814;37.132;2023-05-10T04:07:37;8.77;;;4.85;;
71395;SDS011;59888;55.814;37.132;2023-05-10T04:10:03;10.50;;;3.92;;
71395;SDS011;59888;55.814;37.132;2023-05-10T04:12:31;10.55;;;4.38;;
71395;SDS011;59888;55.814;37.132;2023-05-10T04:14:57;7.18;;;4.07;;
71395;SDS011;59888;55.814;37.132;2023-05-10T04:17:23;8.35;;;3.92;;
71395;SDS011;59888;55.814;37.132;2023-05-10T04:19:48;7.18;;;4.22;;
71395;SDS011;59888;55.814;37.132;2023-05-10T04:22:14;14.68;;;4.60;;
71395;SDS011;59888;55.814;37.132;2023-05-10T04:24:41;9.18;;;4.45;;
71395;SDS011;59888;55.814;37.132;2023-05-10T04:27:07;7.55;;;4.10;;
71395;SDS011;59888;55.814;37.132;2023-05-10T04:29:33;9.57;;;4.30;;
71395;SDS011;59888;55.814;37.132;2023-05-10T04:31:59;7.90;;;4.50;;
71395;SDS011;59888;55.814;37.132;2023-05-10T04:34:25;9.20;;;4.65;;
71395;SDS011;59888;55.814;37.132;2023-05-10T04:36:51;9.70;;;4.00;;
71395;SDS011;59888;55.814;37.132;2023-05-10T04:39:17;6.65;;;3.67;;
71395;SDS011;59888;55.814;37.132;2023-05-10T04:41:43;9.23;;;4.00;;
71395;SDS011;59888;55.814;37.132;2023-05-10T04:44:09;7.10;;;3.80;;
71395;SDS011;59888;55.814;37.132;2023-05-10T04:46:35;10.00;;;4.43;;
71395;SDS011;59888;55.814;37.132;2023-05-10T04:49:01;7.00;;;3.63;;
71395;SDS011;59888;55.814;37.132;2023-05-10T04:51:27;6.82;;;3.78;;
71395;SDS011;59888;55.814;37.132;2023-05-10T04:53:53;7.28;;;3.50;;
71395;SDS011;59888;55.814;37.132;2023-05-10T04:56:19;8.93;;;3.63;;
71395;SDS011;59888;55.814;37.132;2023-05-10T04:58:44;6.30;;;3.20;;
71395;SDS011;59888;55.814;37.132;2023-05-10T05:01:11;7.93;;;3.92;;
71395;SDS011;59888;55.814;37.132;2023-05-10T05:03:37;7.13;;;3.40;;
71395;SDS011;59888;55.814;37.132;2023-05-10T05:06:03;9.90;;;3.67;;
71395;SDS011;59888;55.814;37.132;2023-05-10T05:08:29;6.38;;;3.03;;
71395;SDS011;59888;55.814;37.132;2023-05-10T05:10:55;10.52;;;3.47;;
71395;SDS011;59888;55.814;37.132;2023-05-10T05:13:22;8.32;;;3.00;;
71395;SDS011;59888;55.814;37.132;2023-05-10T05:15:48;8.02;;;3.58;;
71395;SDS011;59888;55.814;37.132;2023-05-10T05:18:14;8.30;;;4.00;;
71395;SDS011;59888;55.814;37.132;2023-05-10T05:20:39;8.80;;;3.75;;
71395;SDS011;59888;55.814;37.132;2023-05-10T05:23:06;10.30;;;4.13;;
71395;SDS011;59888;55.814;37.132;2023-05-10T05:25:31;8.68;;;3.80;;
71395;SDS011;59888;55.814;37.132;2023-05-10T05:27:57;10.07;;;4.05;;
71395;SDS011;59888;55.814;37.132;2023-05-10T05:30:23;9.52;;;3.95;;
71395;SDS011;59888;55.814;37.132;2023-05-10T05:32:49;10.05;;;4.10;;
71395;SDS011;59888;55.814;37.132;2023-05-10T05:35:15;9.65;;;3.83;;
71395;SDS011;59888;55.814;37.132;2023-05-10T05:37:41;9.90;;;4.13;;
71395;SDS011;59888;55.814;37.132;2023-05-10T05:40:07;6.60;;;3.80;;
71395;SDS011;59888;55.814;37.132;2023-05-10T05:42:33;6.07;;;3.90;;
71395;SDS011;59888;55.814;37.132;2023-05-10T05:44:59;13.18;;;3.88;;
71395;SDS011;59888;55.814;37.132;2023-05-10T05:47:25;6.30;;;3.03;;
71395;SDS011;59888;55.814;37.132;2023-05-10T05:49:51;5.57;;;3.28;;
71395;SDS011;59888;55.814;37.132;2023-05-10T05:52:17;7.38;;;3.40;;
71395;SDS011;59888;55.814;37.132;2023-05-10T05:54:43;7.03;;;3.38;;
71395;SDS011;59888;55.814;37.132;2023-05-10T05:57:09;8.57;;;3.47;;
71395;SDS011;59888;55.814;37.132;2023-05-10T05:59:35;9.70;;;3.38;;
71395;SDS011;59888;55.814;37.132;2023-05-10T06:02:01;5.82;;;3.15;;
71395;SDS011;59888;55.814;37.132;2023-05-10T06:04:27;10.98;;;3.75;;
71395;SDS011;59888;55.814;37.132;2023-05-10T06:06:53;9.38;;;3.80;;
71395;SDS011;59888;55.814;37.132;2023-05-10T06:09:19;7.93;;;3.55;;
71395;SDS011;59888;55.814;37.132;2023-05-10T06:11:45;7.18;;;3.00;;
71395;SDS011;59888;55.814;37.132;2023-05-10T06:14:11;8.15;;;3.88;;
71395;SDS011;59888;55.814;37.132;2023-05-10T06:16:37;8.35;;;3.95;;
71395;SDS011;59888;55.814;37.132;2023-05-10T06:19:03;7.47;;;3.25;;
71395;SDS011;59888;55.814;37.132;2023-05-10T06:21:29;9.05;;;3.60;;
71395;SDS011;59888;55.814;37.132;2023-05-10T06:23:55;7.47;;;3.30;;
71395;SDS011;59888;55.814;37.132;2023-05-10T06:26:21;12.52;;;4.13;;
71395;SDS011;59888;55.814;37.132;2023-05-10T06:28:47;9.52;;;3.55;;
71395;SDS011;59888;55.814;37.132;2023-05-10T06:31:13;11.30;;;3.60;;
71395;SDS011;59888;55.814;37.132;2023-05-10T06:33:39;8.20;;;3.70;;
71395;SDS011;59888;55.814;37.132;2023-05-10T06:36:06;11.13;;;3.42;;
71395;SDS011;59888;55.814;37.132;2023-05-10T06:38:32;11.80;;;3.50;;
71395;SDS011;59888;55.814;37.132;2023-05-10T06:40:58;10.63;;;3.13;;
71395;SDS011;59888;55.814;37.132;2023-05-10T06:43:25;6.88;;;2.88;;
71395;SDS011;59888;55.814;37.132;2023-05-10T06:45:51;6.45;;;2.92;;
71395;SDS011;59888;55.814;37.132;2023-05-10T06:48:17;7.07;;;3.30;;
71395;SDS011;59888;55.814;37.132;2023-05-10T06:50:43;7.95;;;3.13;;
71395;SDS011;59888;55.814;37.132;2023-05-10T06:53:09;7.47;;;2.90;;
71395;SDS011;59888;55.814;37.132;2023-05-10T06:55:35;6.78;;;2.90;;
71395;SDS011;59888;55.814;37.132;2023-05-10T06:58:01;7.53;;;3.08;;
71395;SDS011;59888;55.814;37.132;2023-05-10T07:00:27;9.30;;;2.92;;
71395;SDS011;59888;55.814;37.132;2023-05-10T07:02:53;7.70;;;2.80;;
71395;SDS011;59888;55.814;37.132;2023-05-10T07:05:19;7.25;;;2.70;;
71395;SDS011;59888;55.814;37.132;2023-05-10T07:07:45;8.18;;;3.00;;
71395;SDS011;59888;55.814;37.132;2023-05-10T07:10:11;10.60;;;3.00;;
71395;SDS011;59888;55.814;37.132;2023-05-10T07:12:37;7.82;;;3.15;;
71395;SDS011;59888;55.814;37.132;2023-05-10T07:15:03;8.93;;;3.65;;
71395;SDS011;59888;55.814;37.132;2023-05-10T07:17:31;9.85;;;3.10;;
71395;SDS011;59888;55.814;37.132;2023-05-10T07:19:58;11.02;;;3.45;;
71395;SDS011;59888;55.814;37.132;2023-05-10T07:22:25;6.03;;;2.70;;
71395;SDS011;59888;55.814;37.132;2023-05-10T07:24:51;7.95;;;2.80;;
71395;SDS011;59888;55.814;37.132;2023-05-10T07:27:17;7.22;;;2.55;;
71395;SDS011;59888;55.814;37.132;2023-05-10T07:29:43;4.50;;;2.30;;
71395;SDS011;59888;55.814;37.132;2023-05-10T07:32:09;12.05;;;2.45;;
71395;SDS011;59888;55.814;37.132;2023-05-10T07:34:35;8.15;;;3.63;;
71395;SDS011;59888;55.814;37.132;2023-05-10T07:37:01;10.98;;;3.63;;
71395;SDS011;59888;55.814;37.132;2023-05-10T07:39:27;5.95;;;2.45;;
71395;SDS011;59888;55.814;37.132;2023-05-10T07:41:56;8.57;;;2.20;;
71395;SDS011;59888;55.814;37.132;2023-05-10T07:44:22;6.60;;;2.20;;
71395;SDS011;59888;55.814;37.132;2023-05-10T07:46:48;4.45;;;2.35;;
71395;SDS011;59888;55.814;37.132;2023-05-10T07:49:14;4.28;;;1.88;;
71395;SDS011;59888;55.814;37.132;2023-05-10T07:51:40;2.75;;;1.45;;
71395;SDS011;59888;55.814;37.132;2023-05-10T07:54:07;3.22;;;1.58;;
71395;SDS011;59888;55.814;37.132;2023-05-10T07:56:33;2.40;;;1.52;;
71395;SDS011;59888;55.814;37.132;2023-05-10T07:59:00;2.25;;;1.35;;
71395;SDS011;59888;55.814;37.132;2023-05-10T08:01:32;3.33;;;1.40;;
71395;SDS011;59888;55.814;37.132;2023-05-10T08:04:00;3.35;;;1.50;;
71395;SDS011;59888;55.814;37.132;2023-05-10T08:06:27;6.82;;;2.58;;
71395;SDS011;59888;55.814;37.132;2023-05-10T08:08:55;3.83;;;1.60;;
71395;SDS011;59888;55.814;37.132;2023-05-10T08:11:22;5.28;;;1.60;;
71395;SDS011;59888;55.814;37.132;2023-05-10T08:13:48;3.35;;;1.30;;
71395;SDS011;59888;55.814;37.132;2023-05-10T08:16:16;4.13;;;1.90;;
71395;SDS011;59888;55.814;37.132;2023-05-10T08:18:42;4.15;;;1.75;;
71395;SDS011;59888;55.814;37.132;2023-05-10T08:21:10;2.72;;;1.58;;
71395;SDS011;59888;55.814;37.132;2023-05-10T08:23:37;3.90;;;1.40;;
71395;SDS011;59888;55.814;37.132;2023-05-10T08:26:03;3.40;;;1.30;;
71395;SDS011;59888;55.814;37.132;2023-05-10T08:28:29;4.13;;;1.70;;
71395;SDS011;59888;55.814;37.132;2023-05-10T08:30:55;2.58;;;1.50;;
71395;SDS011;59888;55.814;37.132;2023-05-10T08:33:21;3.33;;;1.20;;
71395;SDS011;59888;55.814;37.132;2023-05-10T08:35:47;3.63;;;1.27;;
71395;SDS011;59888;55.814;37.132;2023-05-10T08:38:13;3.80;;;1.40;;
71395;SDS011;59888;55.814;37.132;2023-05-10T08:40:41;2.00;;;1.17;;
71395;SDS011;59888;55.814;37.132;2023-05-10T08:43:08;3.35;;;1.35;;
71395;SDS011;59888;55.814;37.132;2023-05-10T08:45:39;3.25;;;1.48;;
71395;SDS011;59888;55.814;37.132;2023-05-10T08:48:07;2.55;;;1.42;;
71395;SDS011;59888;55.814;37.132;2023-05-10T08:50:41;4.43;;;1.67;;
71395;SDS011;59888;55.814;37.132;2023-05-10T08:53:12;4.05;;;1.38;;
71395;SDS011;59888;55.814;37.132;2023-05-10T08:55:40;2.58;;;1.50;;
71395;SDS011;59888;55.814;37.132;2023-05-10T08:58:08;5.30;;;1.98;;
71395;SDS011;59888;55.814;37.132;2023-05-10T09:00:35;4.68;;;1.45;;
71395;SDS011;59888;55.814;37.132;2023-05-10T09:03:03;2.42;;;1.23;;
71395;SDS011;59888;55.814;37.132;2023-05-10T09:05:30;2.67;;;1.33;;
71395;SDS011;59888;55.814;37.132;2023-05-10T09:07:56;5.70;;;1.48;;
71395;SDS011;59888;55.814;37.132;2023-05-10T09:10:22;2.42;;;1.20;;
71395;SDS011;59888;55.814;37.132;2023-05-10T09:12:51;5.05;;;1.48;;
71395;SDS011;59888;55.814;37.132;2023-05-10T09:15:18;2.50;;;1.20;;
71395;SDS011;59888;55.814;37.132;2023-05-10T09:17:46;1.85;;;1.23;;
71395;SDS011;59888;55.814;37.132;2023-05-10T09:20:12;2.75;;;1.40;;
71395;SDS011;59888;55.814;37.132;2023-05-10T09:22:38;2.97;;;1.33;;
71395;SDS011;59888;55.814;37.132;2023-05-10T09:27:35;3.28;;;1.50;;
71395;SDS011;59888;55.814;37.132;2023-05-10T09:30:01;7.10;;;1.63;;
71395;SDS011;59888;55.814;37.132;2023-05-10T09:32:40;4.47;;;1.50;;
71395;SDS011;59888;55.814;37.132;2023-05-10T09:35:12;2.50;;;1.45;;
71395;SDS011;59888;55.814;37.132;2023-05-10T09:37:39;4.07;;;1.67;;
71395;SDS011;59888;55.814;37.132;2023-05-10T09:40:07;2.00;;;1.30;;
71395;SDS011;59888;55.814;37.132;2023-05-10T09:42:36;3.30;;;1.50;;
71395;SDS011;59888;55.814;37.132;2023-05-10T09:45:03;3.13;;;1.73;;
71395;SDS011;59888;55.814;37.132;2023-05-10T09:47:32;2.22;;;1.40;;
71395;SDS011;59888;55.814;37.132;2023-05-10T09:50:04;4.55;;;1.50;;
71395;SDS011;59888;55.814;37.132;2023-05-10T09:55:13;14.25;;;1.80;;
71395;SDS011;59888;55.814;37.132;2023-05-10T09:57:40;2.53;;;1.40;;
71395;SDS011;59888;55.814;37.132;2023-05-10T10:00:06;5.18;;;1.60;;
71395;SDS011;59888;55.814;37.132;2023-05-10T10:02:39;4.28;;;1.60;;
71395;SDS011;59888;55.814;37.132;2023-05-10T10:05:06;2.25;;;1.38;;
71395;SDS011;59888;55.814;37.132;2023-05-10T10:07:32;4.47;;;1.50;;
71395;SDS011;59888;55.814;37.132;2023-05-10T10:09:59;3.80;;;1.70;;
71395;SDS011;59888;55.814;37.132;2023-05-10T10:12:26;3.13;;;1.30;;
71395;SDS011;59888;55.814;37.132;2023-05-10T10:14:52;3.58;;;1.63;;
71395;SDS011;59888;55.814;37.132;2023-05-10T10:17:19;4.45;;;1.50;;
71395;SDS011;59888;55.814;37.132;2023-05-10T10:19:45;3.20;;;1.63;;
71395;SDS011;59888;55.814;37.132;2023-05-10T10:22:13;2.67;;;1.58;;
71395;SDS011;59888;55.814;37.132;2023-05-10T10:24:39;3.13;;;1.50;;
71395;SDS011;59888;55.814;37.132;2023-05-10T10:27:14;3.97;;;1.50;;
71395;SDS011;59888;55.814;37.132;2023-05-10T10:35:11;2.75;;;1.48;;
71395;SDS011;59888;55.814;37.132;2023-05-10T10:37:42;2.30;;;1.17;;
71395;SDS011;59888;55.814;37.132;2023-05-10T10:40:22;3.63;;;1.60;;
71395;SDS011;59888;55.814;37.132;2023-05-10T10:42:55;3.88;;;1.58;;
71395;SDS011;59888;55.814;37.132;2023-05-10T10:45:23;3.20;;;1.45;;
71395;SDS011;59888;55.814;37.132;2023-05-10T10:50:56;3.15;;;1.63;;
71395;SDS011;59888;55.814;37.132;2023-05-10T10:53:26;4.13;;;1.40;;
71395;SDS011;59888;55.814;37.132;2023-05-10T10:56:12;5.85;;;1.70;;
71395;SDS011;59888;55.814;37.132;2023-05-10T10:58:40;2.35;;;1.40;;
71395;SDS011;59888;55.814;37.132;2023-05-10T11:01:13;3.47;;;1.60;;
71395;SDS011;59888;55.814;37.132;2023-05-10T11:06:28;3.80;;;1.50;;
71395;SDS011;59888;55.814;37.132;2023-05-10T11:09:05;2.53;;;1.38;;
71395;SDS011;59888;55.814;37.132;2023-05-10T11:11:35;3.00;;;1.40;;
71395;SDS011;59888;55.814;37.132;2023-05-10T11:14:07;3.05;;;1.30;;
71395;SDS011;59888;55.814;37.132;2023-05-10T11:16:42;3.35;;;1.70;;
71395;SDS011;59888;55.814;37.132;2023-05-10T11:19:13;2.90;;;1.60;;
71395;SDS011;59888;55.814;37.132;2023-05-10T11:21:50;3.03;;;1.35;;
71395;SDS011;59888;55.814;37.132;2023-05-10T11:24:36;3.90;;;1.60;;
71395;SDS011;59888;55.814;37.132;2023-05-10T11:27:02;4.38;;;1.60;;
71395;SDS011;59888;55.814;37.132;2023-05-10T11:29:28;4.82;;;1.30;;
71395;SDS011;59888;55.814;37.132;2023-05-10T11:31:56;5.07;;;1.52;;
71395;SDS011;59888;55.814;37.132;2023-05-10T11:34:27;2.42;;;1.30;;
71395;SDS011;59888;55.814;37.132;2023-05-10T11:36:59;3.40;;;1.70;;
71395;SDS011;59888;55.814;37.132;2023-05-10T11:39:26;7.30;;;1.65;;
71395;SDS011;59888;55.814;37.132;2023-05-10T11:41:53;2.45;;;1.50;;
71395;SDS011;59888;55.814;37.132;2023-05-10T11:44:20;3.55;;;1.50;;
71395;SDS011;59888;55.814;37.132;2023-05-10T11:46:46;4.45;;;1.90;;
71395;SDS011;59888;55.814;37.132;2023-05-10T11:49:12;5.50;;;1.90;;
71395;SDS011;59888;55.814;37.132;2023-05-10T11:51:39;3.83;;;1.80;;
71395;SDS011;59888;55.814;37.132;2023-05-10T11:54:08;2.97;;;1.30;;
71395;SDS011;59888;55.814;37.132;2023-05-10T11:56:37;4.13;;;1.63;;
71395;SDS011;59888;55.814;37.132;2023-05-10T11:59:07;2.30;;;1.20;;
71395;SDS011;59888;55.814;37.132;2023-05-10T12:01:33;3.63;;;1.50;;
71395;SDS011;59888;55.814;37.132;2023-05-10T12:04:00;5.32;;;1.40;;
71395;SDS011;59888;55.814;37.132;2023-05-10T12:06:28;4.90;;;1.60;;
71395;SDS011;59888;55.814;37.132;2023-05-10T12:08:56;3.20;;;1.73;;
71395;SDS011;59888;55.814;37.132;2023-05-10T12:11:26;4.55;;;1.50;;
71395;SDS011;59888;55.814;37.132;2023-05-10T12:13:55;3.65;;;1.70;;
71395;SDS011;59888;55.814;37.132;2023-05-10T12:16:23;3.90;;;1.75;;
71395;SDS011;59888;55.814;37.132;2023-05-10T12:18:55;6.18;;;1.80;;
71395;SDS011;59888;55.814;37.132;2023-05-10T12:21:23;3.50;;;1.80;;
71395;SDS011;59888;55.814;37.132;2023-05-10T12:23:52;5.03;;;2.13;;
71395;SDS011;59888;55.814;37.132;2023-05-10T12:26:23;2.60;;;1.92;;
71395;SDS011;59888;55.814;37.132;2023-05-10T12:28:55;2.95;;;1.58;;
71395;SDS011;59888;55.814;37.132;2023-05-10T12:31:51;4.13;;;2.30;;
71395;SDS011;59888;55.814;37.132;2023-05-10T12:34:25;6.95;;;2.08;;
71395;SDS011;59888;55.814;37.132;2023-05-10T12:36:52;3.83;;;1.80;;
71395;SDS011;59888;55.814;37.132;2023-05-10T12:39:19;4.43;;;1.70;;
71395;SDS011;59888;55.814;37.132;2023-05-10T12:41:45;2.90;;;1.58;;
71395;SDS011;59888;55.814;37.132;2023-05-10T12:44:10;5.20;;;1.88;;
71395;SDS011;59888;55.814;37.132;2023-05-10T12:46:36;3.53;;;1.80;;
71395;SDS011;59888;55.814;37.132;2023-05-10T12:49:02;5.97;;;1.95;;
71395;SDS011;59888;55.814;37.132;2023-05-10T12:51:28;5.18;;;1.88;;
71395;SDS011;59888;55.814;37.132;2023-05-10T12:53:55;3.00;;;1.70;;
71395;SDS011;59888;55.814;37.132;2023-05-10T12:56:21;3.38;;;1.70;;
71395;SDS011;59888;55.814;37.132;2023-05-10T12:58:46;3.58;;;1.83;;
71395;SDS011;59888;55.814;37.132;2023-05-10T13:01:14;6.97;;;1.63;;
71395;SDS011;59888;55.814;37.132;2023-05-10T13:03:40;4.00;;;1.70;;
71395;SDS011;59888;55.814;37.132;2023-05-10T13:06:06;5.80;;;2.00;;
71395;SDS011;59888;55.814;37.132;2023-05-10T13:08:32;3.95;;;1.85;;
71395;SDS011;59888;55.814;37.132;2023-05-10T13:11:02;5.70;;;1.70;;
71395;SDS011;59888;55.814;37.132;2023-05-10T13:13:28;3.45;;;1.73;;
71395;SDS011;59888;55.814;37.132;2023-05-10T13:15:54;2.45;;;1.40;;
71395;SDS011;59888;55.814;37.132;2023-05-10T13:18:20;4.53;;;1.70;;
71395;SDS011;59888;55.814;37.132;2023-05-10T13:20:46;4.38;;;1.65;;
71395;SDS011;59888;55.814;37.132;2023-05-10T13:23:12;4.85;;;1.65;;
71395;SDS011;59888;55.814;37.132;2023-05-10T13:25:38;3.28;;;1.70;;
71395;SDS011;59888;55.814;37.132;2023-05-10T13:28:04;4.43;;;1.52;;
71395;SDS011;59888;55.814;37.132;2023-05-10T13:30:30;4.68;;;1.70;;
71395;SDS011;59888;55.814;37.132;2023-05-10T13:32:56;3.55;;;1.50;;
71395;SDS011;59888;55.814;37.132;2023-05-10T13:35:22;5.22;;;1.50;;
71395;SDS011;59888;55.814;37.132;2023-05-10T13:37:48;2.08;;;1.50;;
71395;SDS011;59888;55.814;37.132;2023-05-10T13:40:14;3.70;;;1.70;;
71395;SDS011;59888;55.814;37.132;2023-05-10T13:42:42;7.05;;;1.60;;
71395;SDS011;59888;55.814;37.132;2023-05-10T13:45:08;4.13;;;1.52;;
71395;SDS011;59888;55.814;37.132;2023-05-10T13:47:34;2.65;;;1.50;;
71395;SDS011;59888;55.814;37.132;2023-05-10T13:50:00;3.40;;;1.60;;
71395;SDS011;59888;55.814;37.132;2023-05-10T13:52:31;7.22;;;1.70;;
71395;SDS011;59888;55.814;37.132;2023-05-10T13:54:57;3.80;;;1.55;;
71395;SDS011;59888;55.814;37.132;2023-05-10T13:57:23;6.22;;;1.50;;
71395;SDS011;59888;55.814;37.132;2023-05-10T13:59:50;4.85;;;1.70;;
71395;SDS011;59888;55.814;37.132;2023-05-10T14:02:16;6.97;;;1.63;;
71395;SDS011;59888;55.814;37.132;2023-05-10T14:04:41;4.57;;;1.70;;
71395;SDS011;59888;55.814;37.132;2023-05-10T14:07:07;4.28;;;1.55;;
71395;SDS011;59888;55.814;37.132;2023-05-10T14:09:33;3.00;;;1.50;;
71395;SDS011;59888;55.814;37.132;2023-05-10T14:11:59;4.53;;;1.60;;
71395;SDS011;59888;55.814;37.132;2023-05-10T14:14:25;3.80;;;1.70;;
71395;SDS011;59888;55.814;37.132;2023-05-10T14:16:51;6.13;;;1.80;;
71395;SDS011;59888;55.814;37.132;2023-05-10T14:19:17;5.80;;;1.80;;
71395;SDS011;59888;55.814;37.132;2023-05-10T14:21:43;4.25;;;1.70;;
71395;SDS011;59888;55.814;37.132;2023-05-10T14:24:09;4.03;;;1.65;;
71395;SDS011;59888;55.814;37.132;2023-05-10T14:26:35;2.95;;;1.60;;
71395;SDS011;59888;55.814;37.132;2023-05-10T14:29:01;2.47;;;1.58;;
71395;SDS011;59888;55.814;37.132;2023-05-10T14:31:27;5.28;;;1.80;;
71395;SDS011;59888;55.814;37.132;2023-05-10T14:33:55;4.15;;;1.60;;
71395;SDS011;59888;55.814;37.132;2023-05-10T14:36:22;3.45;;;1.55;;
71395;SDS011;59888;55.814;37.132;2023-05-10T14:38:48;3.70;;;1.60;;
71395;SDS011;59888;55.814;37.132;2023-05-10T14:41:15;5.05;;;1.48;;
71395;SDS011;59888;55.814;37.132;2023-05-10T14:43:43;3.90;;;1.77;;
71395;SDS011;59888;55.814;37.132;2023-05-10T14:46:09;3.38;;;1.40;;
71395;SDS011;59888;55.814;37.132;2023-05-10T14:48:35;4.00;;;1.52;;
71395;SDS011;59888;55.814;37.132;2023-05-10T14:51:01;4.53;;;1.60;;
71395;SDS011;59888;55.814;37.132;2023-05-10T14:53:27;3.67;;;1.67;;
71395;SDS011;59888;55.814;37.132;2023-05-10T14:55:53;4.82;;;1.65;;
71395;SDS011;59888;55.814;37.132;2023-05-10T14:58:19;3.65;;;1.60;;
71395;SDS011;59888;55.814;37.132;2023-05-10T15:00:45;8.10;;;3.67;;
71395;SDS011;59888;55.814;37.132;2023-05-10T15:03:11;5.72;;;1.98;;
71395;SDS011;59888;55.814;37.132;2023-05-10T15:05:37;3.33;;;1.48;;